Kitsissut

KL  EN  DA
ASIAQ
Weather Now GREENLAND SURVEY
Updated [WGT/WGST] Temperature [°C] Wind [m/s] Air pressure [hPa] Relative humidity [%] Precipitation [mm]
Present Wind chill Speed Max
19.10 00:00-5,3-12,87,2 ⇓8,8101451n/a
18.10 23:00-5,6-13,06,7 ⇘8,2101458n/a
18.10 22:00-5,9-13,16,2 ⇘7,7101552n/a
18.10 21:00-6,1-12,34,6 ⇘6,2101558n/a
18.10 20:00-6,2-13,15,7 ⇘7,2101554n/a
18.10 19:00-6,3-12,14,1 ⇓6,2101552n/a
18.10 18:00-6,5-13,15,1 ⇘7,2101453n/a
18.10 17:00-6,5-12,84,6 ⇓6,7101461n/a
18.10 16:00-6,6-13,65,7 ⇓8,2101460n/a
18.10 15:00-7,0-14,56,2 ⇓8,2101459n/a
18.10 14:00-7,3-15,47,2 ⇘8,8101447n/a
18.10 13:00-7,9-16,27,2 ⇘10,3101452n/a
18.10 12:00-7,9-16,27,2 ⇘9,8101454n/a
18.10 11:00-7,7-16,27,7 ⇘10,3101457n/a
18.10 10:00-7,7-15,97,2 ⇒9,8101359n/a
18.10 09:00-7,5-15,46,7 ⇘9,3101353n/a
18.10 08:00-7,1-15,68,2 ⇘9,8101355n/a
18.10 07:00-6,5-15,69,8 ⇘11,8101359n/a
18.10 06:00-6,0-14,58,8 ⇘11,3101267n/a
18.10 05:00-5,5-13,88,8 ⇘11,3101276n/a
18.10 04:00-3,8-8,63,6 ⇗6,7101177n/a
18.10 03:00-4,1-8,02,6 ⇑6,2101278n/a
18.10 02:00-4,2-9,54,1 ⇑8,2101278n/a
18.10 01:00-4,1-9,03,6 ⇑7,2101269n/a
18.10 00:00-4,3-9,23,6 ⇑6,7101269n/a
Position: (76.73333333,-73.12083333)

[Back]